createdAt,value
2019-01-12T00:00:31.783Z,12.90
2019-01-12T00:03:01.518Z,12.90
2019-01-12T00:05:31.264Z,12.80
2019-01-12T00:08:00.971Z,12.80
2019-01-12T00:10:30.638Z,12.80
2019-01-12T00:13:00.540Z,12.70
2019-01-12T00:15:30.240Z,12.70
2019-01-12T00:17:59.952Z,12.70
2019-01-12T00:20:31.083Z,12.60
2019-01-12T00:23:01.386Z,12.60
2019-01-12T00:25:31.133Z,12.60
2019-01-12T00:28:00.873Z,12.60
2019-01-12T00:30:30.583Z,12.50
2019-01-12T00:33:00.264Z,12.50
2019-01-12T00:35:29.938Z,12.50
2019-01-12T00:37:59.651Z,12.50
2019-01-12T00:40:29.319Z,12.50
2019-01-12T00:43:01.129Z,12.50
2019-01-12T00:45:31.987Z,12.50
2019-01-12T00:48:01.646Z,12.50
2019-01-12T00:50:31.324Z,12.50
2019-01-12T00:53:02.460Z,12.50
2019-01-12T00:55:32.442Z,12.50
2019-01-12T00:58:04.404Z,12.50
2019-01-12T01:00:35.566Z,12.50
2019-01-12T01:03:05.443Z,12.50
2019-01-12T01:05:35.239Z,12.60
2019-01-12T01:08:05.652Z,12.50
2019-01-12T01:10:36.792Z,12.50
2019-01-12T01:13:06.810Z,12.50
2019-01-12T01:15:36.506Z,12.50
2019-01-12T01:18:06.165Z,12.50
2019-01-12T01:20:35.838Z,12.50
2019-01-12T01:23:05.349Z,12.50
2019-01-12T01:25:36.440Z,12.50
2019-01-12T01:28:06.518Z,12.50
2019-01-12T01:30:36.221Z,12.40
2019-01-12T01:33:05.870Z,12.40
2019-01-12T01:35:36.350Z,12.40
2019-01-12T01:38:06.259Z,12.40
2019-01-12T01:40:35.931Z,12.40
2019-01-12T01:43:05.590Z,12.40
2019-01-12T01:45:35.267Z,12.40
2019-01-12T01:48:04.920Z,12.40
2019-01-12T01:50:34.594Z,12.50
2019-01-12T01:53:04.493Z,12.50
2019-01-12T01:55:34.165Z,12.50
2019-01-12T01:58:04.023Z,12.40
2019-01-12T02:00:33.920Z,12.40
2019-01-12T02:03:03.603Z,12.40
2019-01-12T02:05:33.291Z,12.40
2019-01-12T02:08:03.035Z,12.40
2019-01-12T02:10:32.704Z,12.40
2019-01-12T02:13:02.365Z,12.40
2019-01-12T02:15:32.127Z,12.40
2019-01-12T02:18:01.779Z,12.50
2019-01-12T02:20:31.451Z,12.50
2019-01-12T02:23:01.139Z,12.50
2019-01-12T02:25:30.878Z,12.50
2019-01-12T02:28:00.542Z,12.50
2019-01-12T02:30:31.243Z,12.50
2019-01-12T02:33:00.918Z,12.50
2019-01-12T02:35:31.522Z,12.50
2019-01-12T02:38:01.219Z,12.60
2019-01-12T02:40:30.876Z,12.60
2019-01-12T02:43:00.528Z,12.60
2019-01-12T02:45:30.279Z,12.70
2019-01-12T02:47:59.763Z,12.70
2019-01-12T02:50:29.433Z,12.80
2019-01-12T02:52:59.128Z,12.80
2019-01-12T02:55:28.802Z,12.80
2019-01-12T02:57:58.482Z,12.90
2019-01-12T03:00:28.198Z,12.90
2019-01-12T03:02:57.884Z,13.00
2019-01-12T03:05:27.537Z,13.00
2019-01-12T03:07:57.236Z,13.00
2019-01-12T03:10:26.904Z,13.10
2019-01-12T03:12:58.289Z,13.10
2019-01-12T03:15:27.988Z,13.10
2019-01-12T03:17:58.479Z,13.10
2019-01-12T03:20:28.156Z,13.20
2019-01-12T03:22:57.835Z,13.20
2019-01-12T03:25:28.308Z,13.20
2019-01-12T03:27:59.325Z,13.20
2019-01-12T03:30:29.029Z,13.20
2019-01-12T03:32:58.688Z,13.20
2019-01-12T03:35:28.362Z,13.20
2019-01-12T03:37:58.038Z,13.20
2019-01-12T03:40:27.719Z,13.20
2019-01-12T03:42:57.369Z,13.20
2019-01-12T03:45:27.051Z,13.20
2019-01-12T03:47:56.710Z,13.30
2019-01-12T03:50:26.708Z,13.30
2019-01-12T03:52:56.389Z,13.30
2019-01-12T03:55:26.070Z,13.30
2019-01-12T03:57:55.727Z,13.30
2019-01-12T04:00:25.913Z,13.30
2019-01-12T04:02:56.428Z,13.40
2019-01-12T04:05:26.609Z,13.40
2019-01-12T04:08:02.695Z,13.40
2019-01-12T04:10:32.353Z,13.40
2019-01-12T04:13:02.017Z,13.40
2019-01-12T04:15:31.917Z,13.40
2019-01-12T04:18:01.569Z,13.40
2019-01-12T04:20:31.251Z,13.40
2019-01-12T04:23:00.939Z,13.40
2019-01-12T04:25:34.082Z,13.40
2019-01-12T04:28:02.132Z,13.40
2019-01-12T04:30:31.846Z,13.40
2019-01-12T04:33:01.816Z,13.40
2019-01-12T04:35:31.489Z,13.40
2019-01-12T04:38:01.192Z,13.40
2019-01-12T04:40:30.851Z,13.40
2019-01-12T04:43:00.518Z,13.40
2019-01-12T04:45:30.226Z,13.40
2019-01-12T04:47:59.909Z,13.40
2019-01-12T04:50:29.676Z,13.40
2019-01-12T04:52:59.352Z,13.40
2019-01-12T04:55:29.023Z,13.40
2019-01-12T04:57:58.703Z,13.30
2019-01-12T05:00:28.389Z,13.30
2019-01-12T05:02:58.066Z,13.30
2019-01-12T05:05:27.745Z,13.30
2019-01-12T05:07:58.990Z,13.30
2019-01-12T05:10:28.652Z,13.30
2019-01-12T05:12:58.326Z,13.30
2019-01-12T05:15:27.996Z,13.30
2019-01-12T05:17:57.662Z,13.30
2019-01-12T05:20:27.340Z,13.30
2019-01-12T05:22:57.461Z,13.30
2019-01-12T05:25:27.130Z,13.30
2019-01-12T05:27:56.719Z,13.30
2019-01-12T05:30:26.408Z,13.30
2019-01-12T05:32:56.100Z,13.30
2019-01-12T05:35:25.738Z,13.20
2019-01-12T05:37:55.441Z,13.20
2019-01-12T05:40:25.132Z,13.20
2019-01-12T05:42:54.813Z,13.10
2019-01-12T05:45:24.507Z,13.10
2019-01-12T05:47:54.167Z,13.00
2019-01-12T05:50:25.409Z,13.00
2019-01-12T05:52:55.102Z,12.90
2019-01-12T05:55:24.784Z,12.90
2019-01-12T05:57:54.460Z,12.80
2019-01-12T06:00:24.448Z,12.80
2019-01-12T06:02:54.124Z,12.70
2019-01-12T06:05:23.613Z,12.60
2019-01-12T06:07:53.289Z,12.50
2019-01-12T06:10:22.962Z,12.50
2019-01-12T06:12:52.629Z,12.40
2019-01-12T06:15:22.325Z,12.40
2019-01-12T06:17:52.339Z,12.40
2019-01-12T06:20:21.956Z,12.40
2019-01-12T06:22:51.781Z,12.40
2019-01-12T06:25:21.447Z,12.40
2019-01-12T06:27:51.107Z,12.40
2019-01-12T06:30:22.580Z,12.40
2019-01-12T06:32:52.569Z,12.40
2019-01-12T06:35:22.230Z,12.50
2019-01-12T06:37:52.330Z,12.50
2019-01-12T06:40:22.167Z,12.50
2019-01-12T06:42:51.826Z,12.50
2019-01-12T06:45:21.517Z,12.50
2019-01-12T06:47:51.288Z,12.50
2019-01-12T06:50:21.265Z,12.50
2019-01-12T06:52:50.970Z,12.50
2019-01-12T06:55:20.649Z,12.50
2019-01-12T06:57:50.319Z,12.50
2019-01-12T07:00:20.710Z,12.60
2019-01-12T07:02:50.781Z,12.60
2019-01-12T07:05:20.462Z,12.60
2019-01-12T07:07:50.152Z,12.70
2019-01-12T07:10:19.818Z,12.70
2019-01-12T07:12:49.592Z,12.80
2019-01-12T07:15:19.275Z,12.80
2019-01-12T07:17:48.937Z,12.80
2019-01-12T07:20:18.717Z,12.80
2019-01-12T07:22:48.402Z,12.80
2019-01-12T07:25:18.061Z,12.80
2019-01-12T07:27:47.745Z,12.80
2019-01-12T07:30:21.971Z,12.80
2019-01-12T07:32:51.782Z,12.90
2019-01-12T07:35:21.745Z,12.90
2019-01-12T07:37:51.488Z,12.80
2019-01-12T07:40:21.155Z,12.80
2019-01-12T07:42:50.811Z,12.80
2019-01-12T07:45:20.506Z,12.70
2019-01-12T07:47:50.175Z,12.70
2019-01-12T07:50:19.834Z,12.60
2019-01-12T07:52:50.822Z,12.60
2019-01-12T07:55:22.125Z,12.60
2019-01-12T07:57:51.786Z,12.50
2019-01-12T08:00:22.047Z,12.50
2019-01-12T08:02:52.204Z,12.50
2019-01-12T08:05:23.769Z,12.50
2019-01-12T08:07:53.463Z,12.50
2019-01-12T08:10:24.025Z,12.40
2019-01-12T08:12:53.897Z,12.40
2019-01-12T08:15:23.749Z,12.40
2019-01-12T08:17:53.883Z,12.50
2019-01-12T08:20:23.619Z,12.50
2019-01-12T08:22:53.737Z,12.50
2019-01-12T08:25:23.811Z,12.50
2019-01-12T08:27:53.503Z,12.60
2019-01-12T08:30:23.197Z,12.60
2019-01-12T08:32:52.876Z,12.60
2019-01-12T08:35:23.435Z,12.60
2019-01-12T08:37:53.136Z,12.70
2019-01-12T08:40:23.124Z,12.70
2019-01-12T08:42:52.800Z,12.70
2019-01-12T08:45:23.467Z,12.70
2019-01-12T08:47:53.138Z,12.70
2019-01-12T08:50:22.818Z,12.70
2019-01-12T08:52:54.909Z,12.60
2019-01-12T08:55:24.739Z,12.60
2019-01-12T08:57:54.886Z,12.60
2019-01-12T09:00:24.581Z,12.60
2019-01-12T09:02:54.335Z,12.50
2019-01-12T09:05:24.028Z,12.50
2019-01-12T09:07:53.720Z,12.50
2019-01-12T09:10:24.843Z,12.50
2019-01-12T09:12:54.524Z,12.50
2019-01-12T09:15:24.402Z,12.50
2019-01-12T09:17:54.061Z,12.50
2019-01-12T09:20:23.743Z,12.40
2019-01-12T09:22:53.451Z,12.30
2019-01-12T09:25:23.128Z,12.30
2019-01-12T09:27:52.785Z,12.30
2019-01-12T09:30:24.027Z,12.20
2019-01-12T09:32:56.405Z,12.10
2019-01-12T09:35:26.034Z,12.00
2019-01-12T09:38:00.600Z,12.00
2019-01-12T09:40:30.262Z,11.90
2019-01-12T09:43:00.528Z,11.90
2019-01-12T09:45:30.248Z,11.80
2019-01-12T09:47:59.912Z,11.90
2019-01-12T09:50:29.661Z,11.80
2019-01-12T09:53:02.108Z,11.80
2019-01-12T09:55:31.782Z,11.80
2019-01-12T09:58:05.629Z,11.80
2019-01-12T10:00:35.319Z,11.90
2019-01-12T10:03:05.044Z,11.90
2019-01-12T10:05:34.724Z,12.00
2019-01-12T10:08:04.712Z,12.00
2019-01-12T10:10:34.392Z,12.00
2019-01-12T10:13:04.073Z,12.10
2019-01-12T10:15:33.861Z,12.10
2019-01-12T10:18:03.532Z,12.20
2019-01-12T10:20:33.304Z,12.20
2019-01-12T10:23:02.979Z,12.30
2019-01-12T10:25:32.652Z,12.40
2019-01-12T10:28:02.342Z,12.50
2019-01-12T10:30:32.006Z,12.50
2019-01-12T10:33:06.179Z,12.60
2019-01-12T10:35:35.847Z,12.60
2019-01-12T10:38:06.215Z,12.70
2019-01-12T10:40:36.298Z,12.80
2019-01-12T10:43:06.043Z,12.80
2019-01-12T10:45:35.711Z,12.80
2019-01-12T10:48:07.405Z,12.90
2019-01-12T10:50:37.084Z,12.90
2019-01-12T10:53:07.168Z,12.90
2019-01-12T10:55:36.845Z,12.90
2019-01-12T10:58:06.518Z,12.90
2019-01-12T11:00:38.887Z,13.00
2019-01-12T11:03:08.566Z,13.00
2019-01-12T11:05:38.439Z,13.00
2019-01-12T11:08:08.814Z,13.10
2019-01-12T11:10:39.601Z,13.10
2019-01-12T11:13:09.277Z,13.10
2019-01-12T11:15:39.357Z,13.10
2019-01-12T11:18:09.417Z,13.10
2019-01-12T11:20:40.639Z,13.10
2019-01-12T11:23:10.561Z,13.10
2019-01-12T11:25:43.037Z,13.10
2019-01-12T11:28:11.719Z,13.10
2019-01-12T11:30:46.601Z,13.10
2019-01-12T11:33:17.269Z,13.00
2019-01-12T11:35:47.883Z,13.00
2019-01-12T11:38:18.374Z,12.90
2019-01-12T11:40:52.927Z,12.80
2019-01-12T11:43:24.145Z,12.70
2019-01-12T11:45:54.283Z,12.70
2019-01-12T11:48:23.964Z,12.60
2019-01-12T11:50:53.793Z,12.70
2019-01-12T11:53:26.737Z,12.60
2019-01-12T11:55:56.471Z,12.60
2019-01-12T11:58:33.524Z,12.70
2019-01-12T12:01:03.562Z,12.70
2019-01-12T12:03:33.250Z,12.60
2019-01-12T12:06:03.051Z,12.60
2019-01-12T12:08:32.778Z,12.50
2019-01-12T12:11:02.522Z,12.50
2019-01-12T12:13:32.245Z,12.50
2019-01-12T12:16:01.916Z,12.60
2019-01-12T12:18:31.651Z,12.60
2019-01-12T12:21:04.022Z,12.60
2019-01-12T12:23:36.452Z,12.70
2019-01-12T12:26:06.135Z,12.70
2019-01-12T12:28:35.920Z,12.70
2019-01-12T12:31:06.547Z,12.80
2019-01-12T12:33:36.410Z,12.80
2019-01-12T12:36:07.565Z,12.80
2019-01-12T12:38:37.886Z,12.80
2019-01-12T12:41:08.098Z,12.90
2019-01-12T12:43:37.808Z,12.90
2019-01-12T12:46:07.535Z,12.90
2019-01-12T12:48:37.199Z,12.90
2019-01-12T12:51:06.948Z,12.90
2019-01-12T12:53:36.611Z,12.70
2019-01-12T12:56:06.975Z,12.90
2019-01-12T12:58:36.842Z,12.90
2019-01-12T13:01:07.098Z,13.00
2019-01-12T13:03:36.768Z,13.00
2019-01-12T13:06:06.588Z,13.00
2019-01-12T13:08:37.227Z,13.10
2019-01-12T13:11:07.211Z,13.10
2019-01-12T13:13:38.466Z,13.10
2019-01-12T13:16:08.141Z,13.10
2019-01-12T13:18:37.815Z,13.20
2019-01-12T13:21:07.520Z,13.20
2019-01-12T13:23:37.467Z,13.30
2019-01-12T13:26:07.251Z,13.20
2019-01-12T13:28:36.922Z,13.30
2019-01-12T13:31:06.600Z,13.30
2019-01-12T13:33:36.271Z,13.30
2019-01-12T13:36:08.765Z,13.20
2019-01-12T13:38:38.500Z,13.20
2019-01-12T13:41:08.165Z,13.10
2019-01-12T13:43:38.070Z,13.10
2019-01-12T13:46:07.751Z,13.20
2019-01-12T13:48:37.416Z,13.20
2019-01-12T13:51:07.125Z,13.20
2019-01-12T13:53:36.802Z,13.20
2019-01-12T13:56:06.964Z,13.20
2019-01-12T13:58:36.730Z,13.20
2019-01-12T14:01:06.598Z,13.20
2019-01-12T14:03:36.267Z,13.20
2019-01-12T14:06:06.233Z,13.20
2019-01-12T14:08:40.281Z,13.20
2019-01-12T14:11:09.982Z,13.20
2019-01-12T14:13:39.659Z,13.20
2019-01-12T14:16:09.738Z,13.20
2019-01-12T14:18:39.433Z,13.10
2019-01-12T14:21:09.110Z,13.10
2019-01-12T14:23:38.872Z,13.00
2019-01-12T14:26:08.556Z,13.00
2019-01-12T14:28:38.211Z,12.90
2019-01-12T14:31:07.870Z,12.90
2019-01-12T14:33:37.572Z,12.90
2019-01-12T14:36:07.237Z,12.90
2019-01-12T14:38:36.911Z,12.90
2019-01-12T14:41:06.644Z,12.90
2019-01-12T14:43:37.776Z,12.90
2019-01-12T14:46:07.502Z,12.90
2019-01-12T14:48:39.830Z,12.90
2019-01-12T14:51:09.507Z,12.90
2019-01-12T14:53:39.179Z,12.90
2019-01-12T14:56:08.877Z,12.90
2019-01-12T14:58:38.570Z,13.00
2019-01-12T15:01:08.319Z,13.00
2019-01-12T15:03:38.007Z,13.00
2019-01-12T15:06:07.728Z,13.00
2019-01-12T15:08:37.375Z,12.90
2019-01-12T15:11:07.075Z,12.90
2019-01-12T15:13:36.768Z,13.00
2019-01-12T15:16:06.447Z,13.00
2019-01-12T15:18:36.143Z,13.10
2019-01-12T15:21:05.823Z,13.10
2019-01-12T15:23:35.545Z,13.10
2019-01-12T15:26:05.644Z,13.10
2019-01-12T15:28:37.019Z,13.10
2019-01-12T15:31:06.684Z,13.00
2019-01-12T15:33:36.526Z,13.00
2019-01-12T15:36:07.947Z,13.00
2019-01-12T15:38:37.616Z,13.00
2019-01-12T15:41:07.383Z,13.00
2019-01-12T15:43:37.173Z,13.00
2019-01-12T15:46:06.894Z,13.00
2019-01-12T15:48:36.585Z,13.00
2019-01-12T15:51:06.259Z,13.00
2019-01-12T15:53:37.393Z,12.90
2019-01-12T15:56:07.077Z,13.00
2019-01-12T15:58:36.809Z,13.00
2019-01-12T16:01:06.959Z,13.00
2019-01-12T16:03:37.735Z,13.00
2019-01-12T16:06:07.414Z,13.00
2019-01-12T16:08:37.099Z,13.00
2019-01-12T16:11:07.377Z,13.00
2019-01-12T16:13:37.232Z,13.00
2019-01-12T16:16:11.302Z,13.00
2019-01-12T16:18:41.002Z,13.00
2019-01-12T16:21:10.666Z,13.00
2019-01-12T16:23:40.338Z,13.00
2019-01-12T16:26:10.031Z,13.00
2019-01-12T16:28:40.650Z,13.00
2019-01-12T16:31:10.323Z,13.00
2019-01-12T16:33:40.038Z,13.00
2019-01-12T16:36:09.712Z,13.00
2019-01-12T16:38:39.371Z,13.00
2019-01-12T16:41:09.068Z,13.00
2019-01-12T16:43:38.740Z,13.00
2019-01-12T16:46:15.647Z,13.00
2019-01-12T16:48:45.328Z,13.00
2019-01-12T16:51:14.982Z,12.90
2019-01-12T16:53:44.676Z,12.90
2019-01-12T16:56:14.363Z,12.90
2019-01-12T16:58:44.032Z,12.90
2019-01-12T17:01:13.713Z,12.90
2019-01-12T17:03:43.468Z,12.90
2019-01-12T17:06:13.125Z,12.90
2019-01-12T17:08:42.825Z,12.80
2019-01-12T17:11:12.483Z,12.80
2019-01-12T17:13:42.171Z,12.80
2019-01-12T17:16:13.318Z,12.80
2019-01-12T17:18:44.072Z,12.60
2019-01-12T17:21:13.739Z,12.80
2019-01-12T17:23:43.426Z,12.80
2019-01-12T17:26:13.085Z,12.80
2019-01-12T17:28:42.750Z,12.80
2019-01-12T17:31:12.456Z,12.80
2019-01-12T17:33:42.130Z,12.80
2019-01-12T17:36:11.809Z,12.90
2019-01-12T17:38:41.613Z,12.90
2019-01-12T17:41:11.287Z,12.90
2019-01-12T17:43:42.401Z,12.90
2019-01-12T17:46:12.209Z,12.90
2019-01-12T17:48:41.993Z,12.90
2019-01-12T17:51:11.690Z,12.90
2019-01-12T17:53:41.393Z,12.90
2019-01-12T17:56:11.058Z,12.90
2019-01-12T17:58:44.391Z,13.00
2019-01-12T18:01:12.211Z,13.00
2019-01-12T18:03:41.877Z,13.10
2019-01-12T18:06:11.532Z,13.10
2019-01-12T18:08:41.234Z,13.20
2019-01-12T18:11:10.893Z,13.20
2019-01-12T18:13:40.557Z,13.20
2019-01-12T18:16:10.243Z,13.20
2019-01-12T18:18:39.914Z,13.20
2019-01-12T18:21:09.564Z,13.20
2019-01-12T18:23:39.241Z,13.20
2019-01-12T18:26:08.903Z,13.20
2019-01-12T18:28:38.573Z,13.30
2019-01-12T18:31:08.284Z,13.30
2019-01-12T18:33:37.933Z,13.40
2019-01-12T18:36:08.360Z,13.40
2019-01-12T18:38:38.066Z,13.40
2019-01-12T18:41:07.741Z,13.40
2019-01-12T18:43:38.105Z,13.40
2019-01-12T18:46:12.078Z,13.40
2019-01-12T18:48:40.127Z,13.30
2019-01-12T18:51:09.798Z,13.30
2019-01-12T18:53:39.480Z,13.30
2019-01-12T18:56:09.223Z,13.30
2019-01-12T18:58:38.889Z,13.30
2019-01-12T19:01:09.388Z,13.20
2019-01-12T19:03:40.376Z,13.30
2019-01-12T19:06:10.418Z,13.30
2019-01-12T19:08:40.116Z,13.30
2019-01-12T19:11:09.770Z,13.30
2019-01-12T19:13:39.451Z,13.30
2019-01-12T19:16:09.160Z,13.30
2019-01-12T19:18:38.851Z,13.30
2019-01-12T19:21:09.671Z,13.40
2019-01-12T19:23:39.346Z,13.40
2019-01-12T19:26:09.013Z,13.40
2019-01-12T19:28:38.673Z,13.40
2019-01-12T19:31:08.367Z,13.40
2019-01-12T19:33:38.037Z,13.40
2019-01-12T19:36:07.781Z,13.40
2019-01-12T19:38:37.474Z,13.50
2019-01-12T19:41:07.159Z,13.50
2019-01-12T19:43:37.744Z,13.50
2019-01-12T19:46:09.308Z,13.50
2019-01-12T19:48:38.987Z,13.50
2019-01-12T19:51:10.178Z,13.50
2019-01-12T19:53:39.886Z,13.50
2019-01-12T19:56:10.758Z,13.50
2019-01-12T19:58:40.429Z,13.50
2019-01-12T20:01:12.024Z,13.40
2019-01-12T20:03:41.712Z,13.40
2019-01-12T20:06:17.080Z,13.40
2019-01-12T20:08:42.770Z,13.40
2019-01-12T20:11:13.063Z,13.50
2019-01-12T20:13:42.740Z,13.50
2019-01-12T20:16:12.418Z,13.50
2019-01-12T20:18:42.086Z,13.50
2019-01-12T20:21:13.318Z,13.50
2019-01-12T20:23:43.019Z,13.50
2019-01-12T20:26:12.708Z,13.50
2019-01-12T20:28:42.989Z,13.50
2019-01-12T20:31:24.781Z,13.50
2019-01-12T20:34:01.355Z,13.50
2019-01-12T20:36:53.112Z,13.50
2019-01-12T20:39:52.885Z,13.50
2019-01-12T20:42:45.473Z,13.50
2019-01-12T20:45:45.224Z,13.50
2019-01-12T20:48:47.566Z,13.50
2019-01-12T20:51:42.390Z,13.50
2019-01-12T20:54:42.174Z,13.50
2019-01-12T20:57:49.413Z,13.50
2019-01-12T21:00:44.629Z,13.60
2019-01-12T21:03:40.934Z,13.60
2019-01-12T21:06:26.666Z,13.60
2019-01-12T21:09:09.940Z,13.70
2019-01-12T21:12:12.417Z,13.70
2019-01-12T21:14:56.563Z,13.70
2019-01-12T21:17:27.884Z,13.70
2019-01-12T21:19:57.549Z,13.70
2019-01-12T21:22:27.317Z,13.70
2019-01-12T21:24:57.018Z,13.70
2019-01-12T21:27:27.779Z,13.80
2019-01-12T21:29:57.795Z,13.80
2019-01-12T21:32:27.503Z,13.80
2019-01-12T21:34:58.957Z,13.90
2019-01-12T21:37:28.651Z,13.90
2019-01-12T21:39:58.338Z,14.00
2019-01-12T21:42:28.007Z,14.00
2019-01-12T21:44:57.887Z,14.00
2019-01-12T21:47:28.393Z,14.00
2019-01-12T21:50:00.451Z,14.10
2019-01-12T21:52:30.152Z,14.20
2019-01-12T21:55:01.341Z,14.20
2019-01-12T21:57:33.166Z,14.20
2019-01-12T22:00:03.328Z,14.20
2019-01-12T22:02:33.028Z,14.30
2019-01-12T22:05:02.504Z,14.40
2019-01-12T22:07:32.187Z,14.40
2019-01-12T22:10:01.955Z,14.50
2019-01-12T22:12:31.707Z,14.50
2019-01-12T22:15:01.498Z,14.50
2019-01-12T22:17:31.335Z,14.50
2019-01-12T22:20:02.899Z,14.50
2019-01-12T22:22:32.532Z,14.50
2019-01-12T22:25:02.229Z,14.50
2019-01-12T22:27:31.919Z,14.50
2019-01-12T22:30:01.608Z,14.50
2019-01-12T22:32:31.295Z,14.50
2019-01-12T22:35:00.975Z,14.50
2019-01-12T22:37:30.665Z,14.50
2019-01-12T22:40:00.190Z,14.50
2019-01-12T22:42:29.821Z,14.40
2019-01-12T22:44:59.552Z,14.40
2019-01-12T22:47:30.299Z,14.30
2019-01-12T22:49:59.965Z,14.30
2019-01-12T22:52:29.650Z,14.30
2019-01-12T22:55:00.260Z,14.30
2019-01-12T22:57:29.902Z,14.20
2019-01-12T22:59:59.578Z,14.20
2019-01-12T23:02:29.627Z,14.20
2019-01-12T23:04:59.298Z,14.20
2019-01-12T23:07:29.147Z,14.20
2019-01-12T23:09:58.762Z,14.20
2019-01-12T23:12:28.425Z,14.20
2019-01-12T23:14:58.082Z,14.20
2019-01-12T23:17:28.871Z,14.20
2019-01-12T23:19:58.555Z,14.20
2019-01-12T23:22:28.366Z,14.20
2019-01-12T23:24:58.060Z,14.20
2019-01-12T23:27:27.741Z,14.20
2019-01-12T23:30:04.072Z,14.10
2019-01-12T23:32:29.245Z,14.20
2019-01-12T23:34:58.924Z,14.20
2019-01-12T23:37:28.596Z,14.20
2019-01-12T23:39:58.287Z,14.20
2019-01-12T23:42:28.042Z,14.20
2019-01-12T23:44:58.210Z,14.20
2019-01-12T23:47:28.003Z,14.30
2019-01-12T23:49:57.785Z,14.30
2019-01-12T23:52:27.564Z,14.30
2019-01-12T23:54:57.255Z,14.30
2019-01-12T23:57:26.994Z,14.30
2019-01-12T23:59:57.006Z,14.30
